createdAt,value
2019-04-28T00:02:26.812Z,2.47
2019-04-28T00:04:57.288Z,2.40
2019-04-28T00:07:27.448Z,2.37
2019-04-28T00:09:58.127Z,2.20
2019-04-28T00:12:28.536Z,1.90
2019-04-28T00:14:58.776Z,2.40
2019-04-28T00:17:30.852Z,2.87
2019-04-28T00:20:02.313Z,2.20
2019-04-28T00:22:49.385Z,2.40
2019-04-28T00:25:45.232Z,2.40
2019-04-28T00:28:15.659Z,2.50
2019-04-28T00:30:46.189Z,2.60
2019-04-28T00:33:16.328Z,2.60
2019-04-28T00:35:46.703Z,2.37
2019-04-28T00:38:16.956Z,2.27
2019-04-28T00:40:47.296Z,2.20
2019-04-28T00:43:17.741Z,2.10
2019-04-28T00:45:48.101Z,1.80
2019-04-28T00:48:20.846Z,2.33
2019-04-28T00:50:51.906Z,1.90
2019-04-28T00:53:23.050Z,2.63
2019-04-28T00:55:54.030Z,2.60
2019-04-28T00:58:24.416Z,2.43
2019-04-28T01:00:56.205Z,4.80
2019-04-28T01:03:26.141Z,3.40
2019-04-28T01:05:56.657Z,2.50
2019-04-28T01:08:26.688Z,3.20
2019-04-28T01:10:56.557Z,2.60
2019-04-28T01:13:26.432Z,3.10
2019-04-28T01:16:03.136Z,3.20
2019-04-28T01:18:41.820Z,2.97
2019-04-28T01:21:11.826Z,3.10
2019-04-28T01:23:41.745Z,3.00
2019-04-28T01:26:11.715Z,3.13
2019-04-28T01:28:41.604Z,2.87
2019-04-28T01:31:39.664Z,3.13
2019-04-28T01:34:21.256Z,2.43
2019-04-28T01:36:51.631Z,2.40
2019-04-28T01:39:22.780Z,2.40
2019-04-28T01:41:53.026Z,2.70
2019-04-28T01:44:23.636Z,2.53
2019-04-28T01:46:54.184Z,2.60
2019-04-28T01:49:24.396Z,2.80
2019-04-28T01:52:00.912Z,2.70
2019-04-28T01:54:31.507Z,2.50
2019-04-28T01:57:02.016Z,2.80
2019-04-28T01:59:32.319Z,2.80
2019-04-28T02:02:02.747Z,2.93
2019-04-28T02:04:33.525Z,2.50
2019-04-28T02:07:04.815Z,3.47
2019-04-28T02:09:34.950Z,2.37
2019-04-28T02:12:05.621Z,2.47
2019-04-28T02:14:35.811Z,2.30
2019-04-28T02:17:06.270Z,2.40
2019-04-28T02:19:36.490Z,2.17
2019-04-28T02:22:17.958Z,2.77
2019-04-28T02:24:48.204Z,2.73
2019-04-28T02:27:20.320Z,2.40
2019-04-28T02:29:50.487Z,2.50
2019-04-28T02:32:24.131Z,2.27
2019-04-28T02:34:52.568Z,2.37
2019-04-28T02:37:23.816Z,2.03
2019-04-28T02:39:54.140Z,2.40
2019-04-28T02:42:24.322Z,1.97
2019-04-28T02:44:54.481Z,2.20
2019-04-28T02:47:24.805Z,2.50
2019-04-28T02:50:13.860Z,2.00
2019-04-28T02:52:57.918Z,1.90
2019-04-28T02:55:31.368Z,2.60
2019-04-28T02:58:01.457Z,2.10
2019-04-28T03:00:32.090Z,2.30
2019-04-28T03:03:02.421Z,2.20
2019-04-28T03:05:33.505Z,1.73
2019-04-28T03:08:04.121Z,2.47
2019-04-28T03:10:34.251Z,2.07
2019-04-28T03:13:04.565Z,1.87
2019-04-28T03:15:34.827Z,1.90
2019-04-28T03:18:06.288Z,1.90
2019-04-28T03:20:36.677Z,1.90
2019-04-28T03:23:09.892Z,1.93
2019-04-28T03:26:16.063Z,2.00
2019-04-28T03:29:14.241Z,2.13
2019-04-28T03:32:16.162Z,2.23
2019-04-28T03:34:27.250Z,1.80
2019-04-28T03:37:00.342Z,1.90
2019-04-28T03:39:30.777Z,1.73
2019-04-28T03:42:01.022Z,2.13
2019-04-28T03:44:33.898Z,2.13
2019-04-28T03:47:03.937Z,2.00
2019-04-28T03:49:35.203Z,1.83
2019-04-28T03:52:06.724Z,2.10
2019-04-28T03:54:37.250Z,2.10
2019-04-28T03:57:07.475Z,2.20
2019-04-28T03:59:37.337Z,2.40
2019-04-28T04:02:07.457Z,1.93
2019-04-28T04:04:37.317Z,2.13
2019-04-28T04:07:07.824Z,1.90
2019-04-28T04:09:54.657Z,2.30
2019-04-28T04:12:34.403Z,2.23
2019-04-28T04:15:31.006Z,2.20
2019-04-28T04:18:03.624Z,2.30
2019-04-28T04:20:33.539Z,2.43
2019-04-28T04:23:03.900Z,2.10
2019-04-28T04:25:33.814Z,2.60
2019-04-28T04:28:04.051Z,2.50
2019-04-28T04:30:34.159Z,3.47
2019-04-28T04:33:04.086Z,2.33
2019-04-28T04:35:33.947Z,3.07
2019-04-28T04:38:04.456Z,3.17
2019-04-28T04:40:34.349Z,3.00
2019-04-28T04:43:04.363Z,2.87
2019-04-28T04:45:35.285Z,3.20
2019-04-28T04:48:05.198Z,2.60
2019-04-28T04:50:35.264Z,3.00
2019-04-28T04:53:06.081Z,2.60
2019-04-28T04:55:36.304Z,2.63
2019-04-28T04:58:07.320Z,2.80
2019-04-28T05:00:47.888Z,2.90
2019-04-28T05:03:21.575Z,3.37
2019-04-28T05:05:51.567Z,2.53
2019-04-28T05:08:21.988Z,3.73
2019-04-28T05:10:52.435Z,2.77
2019-04-28T05:13:22.924Z,2.80
2019-04-28T05:15:53.276Z,3.73
2019-04-28T05:18:23.777Z,3.10
2019-04-28T05:20:53.880Z,3.17
2019-04-28T05:23:32.701Z,3.07
2019-04-28T05:26:08.184Z,3.70
2019-04-28T05:28:36.900Z,3.40
2019-04-28T05:31:06.824Z,2.70
2019-04-28T05:33:39.569Z,3.10
2019-04-28T05:36:11.806Z,3.27
2019-04-28T05:38:42.135Z,3.43
2019-04-28T05:41:12.285Z,3.10
2019-04-28T05:43:42.493Z,2.87
2019-04-28T05:46:12.776Z,3.23
2019-04-28T05:48:49.480Z,3.07
2019-04-28T05:51:21.852Z,3.53
2019-04-28T05:53:59.545Z,3.10
2019-04-28T05:56:39.780Z,3.00
2019-04-28T05:59:14.042Z,3.20
2019-04-28T06:02:21.857Z,2.90
2019-04-28T06:04:51.968Z,3.17
2019-04-28T06:07:30.489Z,3.70
2019-04-28T06:10:00.948Z,3.20
2019-04-28T06:12:42.146Z,3.10
2019-04-28T06:15:12.780Z,3.10
2019-04-28T06:17:43.168Z,2.90
2019-04-28T06:20:13.688Z,2.90
2019-04-28T06:22:44.101Z,2.83
2019-04-28T06:25:15.432Z,2.37
2019-04-28T06:27:46.031Z,2.83
2019-04-28T06:30:17.069Z,3.17
2019-04-28T06:32:47.252Z,2.37
2019-04-28T06:35:17.723Z,2.67
2019-04-28T06:37:48.916Z,2.90
2019-04-28T06:40:19.183Z,2.60
2019-04-28T06:42:49.703Z,3.20
2019-04-28T06:45:20.143Z,2.73
2019-04-28T06:47:52.875Z,2.30
2019-04-28T06:50:23.263Z,2.50
2019-04-28T06:52:53.596Z,2.30
2019-04-28T06:55:24.632Z,2.43
2019-04-28T06:57:54.802Z,2.77
2019-04-28T07:00:25.096Z,2.73
2019-04-28T07:02:55.388Z,2.60
2019-04-28T07:05:25.681Z,2.70
2019-04-28T07:07:56.156Z,2.20
2019-04-28T07:10:27.591Z,2.87
2019-04-28T07:12:57.930Z,2.83
2019-04-28T07:15:28.331Z,2.60
2019-04-28T07:17:58.460Z,2.90
2019-04-28T07:20:43.400Z,2.60
2019-04-28T07:23:13.497Z,2.90
2019-04-28T07:25:44.481Z,2.70
2019-04-28T07:28:14.505Z,2.60
2019-04-28T07:30:44.712Z,2.60
2019-04-28T07:33:15.419Z,2.67
2019-04-28T07:35:45.444Z,3.00
2019-04-28T07:38:15.452Z,2.87
2019-04-28T07:40:45.509Z,2.13
2019-04-28T07:43:16.055Z,3.07
2019-04-28T07:45:46.269Z,2.73
2019-04-28T07:48:16.331Z,2.87
2019-04-28T07:50:46.356Z,2.70
2019-04-28T07:53:21.688Z,2.63
2019-04-28T07:55:51.755Z,3.00
2019-04-28T07:58:21.990Z,2.70
2019-04-28T08:00:53.006Z,3.03
2019-04-28T08:03:23.112Z,3.33
2019-04-28T08:05:53.180Z,3.13
2019-04-28T08:08:23.277Z,2.63
2019-04-28T08:10:53.477Z,3.17
2019-04-28T08:13:23.650Z,2.97
2019-04-28T08:15:55.613Z,2.80
2019-04-28T08:18:25.678Z,3.00
2019-04-28T08:20:55.806Z,2.30
2019-04-28T08:23:26.064Z,2.10
2019-04-28T08:25:58.165Z,2.83
2019-04-28T08:28:28.059Z,2.77
2019-04-28T08:30:58.231Z,2.67
2019-04-28T08:33:41.362Z,2.70
2019-04-28T08:36:11.603Z,2.10
2019-04-28T08:38:41.724Z,3.03
2019-04-28T08:41:11.769Z,2.70
2019-04-28T08:43:42.319Z,2.40
2019-04-28T08:46:14.205Z,2.20
2019-04-28T08:48:44.700Z,2.77
2019-04-28T08:51:14.973Z,2.60
2019-04-28T08:53:45.469Z,2.27
2019-04-28T08:56:17.407Z,2.33
2019-04-28T08:58:47.730Z,2.00
2019-04-28T09:01:18.344Z,2.33
2019-04-28T09:03:48.584Z,2.13
2019-04-28T09:06:18.608Z,2.40
2019-04-28T09:08:48.957Z,1.60
2019-04-28T09:11:18.992Z,2.23
2019-04-28T09:13:48.959Z,1.30
2019-04-28T09:16:18.832Z,1.30
2019-04-28T09:18:49.145Z,1.10
2019-04-28T09:21:19.324Z,1.07
2019-04-28T09:23:49.340Z,1.10
2019-04-28T09:26:19.878Z,1.23
2019-04-28T09:28:49.870Z,1.00
2019-04-28T09:31:19.942Z,1.00
2019-04-28T09:33:49.915Z,1.07
2019-04-28T09:36:19.874Z,1.10
2019-04-28T09:38:50.072Z,1.33
2019-04-28T09:41:20.088Z,1.30
2019-04-28T09:44:14.888Z,1.10
2019-04-28T09:46:45.024Z,1.63
2019-04-28T09:49:15.124Z,2.50
2019-04-28T09:51:45.152Z,1.50
2019-04-28T09:54:16.167Z,1.53
2019-04-28T09:56:56.026Z,1.80
2019-04-28T09:59:17.829Z,1.57
2019-04-28T10:01:47.787Z,1.40
2019-04-28T10:04:18.841Z,1.60
2019-04-28T10:06:49.051Z,1.47
2019-04-28T10:09:19.253Z,1.57
2019-04-28T10:11:49.344Z,1.40
2019-04-28T10:14:19.528Z,1.97
2019-04-28T10:16:49.572Z,1.80
2019-04-28T10:19:20.800Z,1.90
2019-04-28T10:21:51.816Z,1.60
2019-04-28T10:24:21.796Z,1.77
2019-04-28T10:26:51.879Z,1.50
2019-04-28T10:29:22.076Z,2.13
2019-04-28T10:31:52.237Z,1.33
2019-04-28T10:34:22.278Z,1.63
2019-04-28T10:36:52.322Z,1.43
2019-04-28T10:39:30.638Z,1.57
2019-04-28T10:42:00.569Z,1.50
2019-04-28T10:44:32.688Z,2.13
2019-04-28T10:47:02.876Z,2.00
2019-04-28T10:49:33.029Z,1.67
2019-04-28T10:52:03.128Z,1.90
2019-04-28T10:54:33.123Z,1.70
2019-04-28T10:57:03.078Z,1.17
2019-04-28T10:59:33.219Z,1.50
2019-04-28T11:02:03.600Z,1.43
2019-04-28T11:05:07.788Z,1.60
2019-04-28T11:07:30.289Z,1.83
2019-04-28T11:10:07.992Z,1.37
2019-04-28T11:12:38.103Z,1.43
2019-04-28T11:15:14.160Z,1.60
2019-04-28T11:17:44.320Z,1.50
2019-04-28T11:20:14.510Z,1.40
2019-04-28T11:22:46.102Z,1.47
2019-04-28T11:25:16.131Z,1.70
2019-04-28T11:27:46.341Z,1.57
2019-04-28T11:30:17.133Z,1.30
2019-04-28T11:33:04.750Z,1.70
2019-04-28T11:35:34.878Z,1.60
2019-04-28T11:38:05.253Z,1.40
2019-04-28T11:40:35.277Z,2.00
2019-04-28T11:43:05.389Z,1.60
2019-04-28T11:45:35.870Z,1.60
2019-04-28T11:48:06.108Z,1.83
2019-04-28T11:50:36.083Z,2.07
2019-04-28T11:53:06.188Z,1.93
2019-04-28T11:55:36.180Z,1.40
2019-04-28T11:58:06.672Z,1.47
2019-04-28T12:00:36.668Z,1.80
2019-04-28T12:03:07.684Z,1.60
2019-04-28T12:05:43.715Z,1.83
2019-04-28T12:08:14.068Z,1.97
2019-04-28T12:11:01.641Z,1.70
2019-04-28T12:13:56.785Z,1.67
2019-04-28T12:16:44.252Z,1.80
2019-04-28T12:19:39.277Z,1.87
2019-04-28T12:22:09.466Z,1.50
2019-04-28T12:24:39.396Z,1.40
2019-04-28T12:27:09.545Z,1.40
2019-04-28T12:29:40.029Z,1.30
2019-04-28T12:32:10.009Z,1.10
2019-04-28T12:34:40.037Z,1.37
2019-04-28T12:37:11.242Z,1.27
2019-04-28T12:39:41.202Z,1.43
2019-04-28T12:42:11.505Z,1.60
2019-04-28T12:44:41.605Z,1.70
2019-04-28T12:47:11.520Z,1.27
2019-04-28T12:49:48.580Z,1.40
2019-04-28T12:52:18.839Z,1.63
2019-04-28T12:54:48.964Z,1.43
2019-04-28T12:57:19.004Z,1.37
2019-04-28T13:00:07.920Z,1.50
2019-04-28T13:02:59.848Z,1.67
2019-04-28T13:05:31.033Z,1.20
2019-04-28T13:08:01.020Z,1.43
2019-04-28T13:10:31.157Z,1.20
2019-04-28T13:13:02.033Z,1.00
2019-04-28T13:15:31.937Z,1.33
2019-04-28T13:18:01.873Z,1.00
2019-04-28T13:20:31.748Z,1.37
2019-04-28T13:23:01.732Z,1.10
2019-04-28T13:25:31.680Z,1.00
2019-04-28T13:28:01.636Z,1.30
2019-04-28T13:30:31.575Z,1.27
2019-04-28T13:33:01.903Z,1.10
2019-04-28T13:35:31.821Z,1.87
2019-04-28T13:38:01.685Z,1.30
2019-04-28T13:40:33.134Z,1.40
2019-04-28T13:43:03.364Z,1.67
2019-04-28T13:45:53.428Z,1.13
2019-04-28T13:48:23.916Z,1.53
2019-04-28T13:50:55.404Z,1.30
2019-04-28T13:53:25.688Z,1.43
2019-04-28T13:56:02.448Z,1.20
2019-04-28T13:58:54.253Z,1.30
2019-04-28T14:01:31.879Z,0.90
2019-04-28T14:04:20.712Z,0.90
2019-04-28T14:06:53.512Z,0.90
2019-04-28T14:09:23.669Z,1.00
2019-04-28T14:11:54.214Z,1.10
2019-04-28T14:14:24.342Z,1.40
2019-04-28T14:16:56.721Z,1.30
2019-04-28T14:19:26.767Z,1.30
2019-04-28T14:21:57.296Z,1.50
2019-04-28T14:24:27.296Z,1.20
2019-04-28T14:26:57.358Z,1.30
2019-04-28T14:29:27.400Z,1.13
2019-04-28T14:31:57.796Z,1.87
2019-04-28T14:34:27.996Z,1.43
2019-04-28T14:36:58.167Z,1.60
2019-04-28T14:39:28.410Z,1.40
2019-04-28T14:41:58.863Z,1.60
2019-04-28T14:44:29.268Z,1.30
2019-04-28T14:46:59.589Z,1.60
2019-04-28T14:49:29.884Z,1.47
2019-04-28T14:52:00.333Z,1.40
2019-04-28T14:54:30.799Z,1.43
2019-04-28T14:57:02.287Z,1.80
2019-04-28T14:59:32.969Z,1.70
2019-04-28T15:02:20.985Z,1.77
2019-04-28T15:05:08.892Z,1.77
2019-04-28T15:07:51.262Z,1.60
2019-04-28T15:10:31.144Z,1.63
2019-04-28T15:13:01.380Z,1.23
2019-04-28T15:15:31.421Z,1.27
2019-04-28T15:18:01.540Z,1.40
2019-04-28T15:20:31.556Z,1.37
2019-04-28T15:23:01.472Z,1.23
2019-04-28T15:25:31.864Z,1.10
2019-04-28T15:28:01.968Z,0.90
2019-04-28T15:30:31.937Z,1.43
2019-04-28T15:33:01.919Z,1.30
2019-04-28T15:35:31.861Z,2.10
2019-04-28T15:38:02.022Z,1.70
2019-04-28T15:40:31.969Z,1.60
2019-04-28T15:43:01.987Z,1.43
2019-04-28T15:45:31.996Z,1.30
2019-04-28T15:48:02.003Z,1.50
2019-04-28T15:50:31.976Z,1.43
2019-04-28T15:53:02.064Z,1.10
2019-04-28T15:55:38.283Z,1.20
2019-04-28T15:58:25.637Z,1.20
2019-04-28T16:00:56.081Z,1.37
2019-04-28T16:03:26.019Z,1.23
2019-04-28T16:05:56.110Z,1.60
2019-04-28T16:08:26.247Z,1.40
2019-04-28T16:10:56.237Z,1.67
2019-04-28T16:13:26.180Z,1.10
2019-04-28T16:15:56.232Z,1.20
2019-04-28T16:18:26.317Z,1.10
2019-04-28T16:20:56.402Z,0.93
2019-04-28T16:23:26.356Z,1.30
2019-04-28T16:25:56.444Z,0.87
2019-04-28T16:28:26.444Z,1.03
2019-04-28T16:30:56.664Z,1.23
2019-04-28T16:33:26.650Z,1.23
2019-04-28T16:35:56.624Z,1.33
2019-04-28T16:38:27.674Z,1.20
2019-04-28T16:41:08.772Z,1.23
2019-04-28T16:43:43.278Z,1.30
2019-04-28T16:46:13.241Z,1.27
2019-04-28T16:48:43.184Z,1.20
2019-04-28T16:51:14.722Z,1.47
2019-04-28T16:53:45.845Z,1.07
2019-04-28T16:56:43.755Z,1.07
2019-04-28T16:59:41.769Z,1.30
2019-04-28T17:02:20.828Z,1.20
2019-04-28T17:04:50.843Z,1.30
2019-04-28T17:07:20.940Z,1.53
2019-04-28T17:09:50.965Z,1.23
2019-04-28T17:12:21.009Z,1.27
2019-04-28T17:14:51.067Z,1.40
2019-04-28T17:17:21.160Z,1.23
2019-04-28T17:19:51.215Z,1.30
2019-04-28T17:22:21.325Z,1.33
2019-04-28T17:24:51.403Z,1.47
2019-04-28T17:27:21.488Z,1.50
2019-04-28T17:29:51.670Z,1.20
2019-04-28T17:32:21.596Z,1.60
2019-04-28T17:34:51.608Z,1.30
2019-04-28T17:37:21.916Z,1.70
2019-04-28T17:39:51.818Z,1.20
2019-04-28T17:42:22.342Z,1.37
2019-04-28T17:44:52.472Z,1.00
2019-04-28T17:47:23.060Z,1.53
2019-04-28T17:49:53.011Z,1.37
2019-04-28T17:52:22.959Z,1.30
2019-04-28T17:54:52.915Z,1.30
2019-04-28T17:57:22.957Z,1.60
2019-04-28T17:59:54.973Z,1.93
2019-04-28T18:02:42.349Z,1.40
2019-04-28T18:05:24.944Z,1.47
2019-04-28T18:07:59.237Z,1.50
2019-04-28T18:10:29.843Z,1.47
2019-04-28T18:13:01.107Z,1.50
2019-04-28T18:15:39.940Z,1.50
2019-04-28T18:18:37.883Z,1.47
2019-04-28T18:21:08.124Z,1.60
2019-04-28T18:23:38.096Z,1.60
2019-04-28T18:26:07.979Z,1.47
2019-04-28T18:28:38.003Z,1.10
2019-04-28T18:31:35.240Z,1.43
2019-04-28T18:34:28.127Z,1.47
2019-04-28T18:37:17.190Z,1.40
2019-04-28T18:40:04.689Z,1.77
2019-04-28T18:42:47.725Z,1.87
2019-04-28T18:45:18.341Z,1.63
2019-04-28T18:47:48.336Z,1.60
2019-04-28T18:50:18.412Z,1.43
2019-04-28T18:52:48.503Z,1.50
2019-04-28T18:55:18.559Z,1.50
2019-04-28T18:57:48.664Z,2.13
2019-04-28T19:00:20.584Z,1.67
2019-04-28T19:02:50.567Z,1.83
2019-04-28T19:05:22.240Z,1.83
2019-04-28T19:08:17.513Z,2.10
2019-04-28T19:11:00.325Z,2.17
2019-04-28T19:13:32.563Z,2.10
2019-04-28T19:16:24.732Z,1.97
2019-04-28T19:18:56.503Z,2.10
2019-04-28T19:21:26.814Z,1.70
2019-04-28T19:23:56.944Z,1.93
2019-04-28T19:26:27.254Z,1.97
2019-04-28T19:28:57.525Z,1.60
2019-04-28T19:31:30.099Z,1.87
2019-04-28T19:34:00.503Z,1.80
2019-04-28T19:36:31.069Z,2.07
2019-04-28T19:39:03.520Z,1.90
2019-04-28T19:41:33.819Z,1.80
2019-04-28T19:44:04.060Z,1.90
2019-04-28T19:46:34.568Z,2.00
2019-04-28T19:49:04.920Z,2.00
2019-04-28T19:51:35.364Z,1.30
2019-04-28T19:54:05.755Z,1.87
2019-04-28T19:57:10.035Z,2.00
2019-04-28T20:00:14.381Z,1.80
2019-04-28T20:02:44.672Z,1.77
2019-04-28T20:05:15.058Z,1.77
2019-04-28T20:07:45.371Z,1.80
2019-04-28T20:10:16.090Z,2.07
2019-04-28T20:12:46.292Z,2.10
2019-04-28T20:15:16.296Z,1.60
2019-04-28T20:17:46.445Z,1.47
2019-04-28T20:20:17.695Z,2.00
2019-04-28T20:22:47.926Z,1.70
2019-04-28T20:25:18.238Z,2.27
2019-04-28T20:27:49.774Z,2.23
2019-04-28T20:30:20.117Z,2.03
2019-04-28T20:32:50.338Z,1.67
2019-04-28T20:35:24.704Z,1.60
2019-04-28T20:38:02.535Z,3.13
2019-04-28T20:40:37.704Z,2.00
2019-04-28T20:43:11.409Z,2.43
2019-04-28T20:45:41.268Z,2.87
2019-04-28T20:48:11.188Z,2.63
2019-04-28T20:50:41.075Z,2.50
2019-04-28T20:53:11.037Z,2.70
2019-04-28T20:55:40.904Z,2.47
2019-04-28T20:58:11.864Z,2.20
2019-04-28T21:00:41.757Z,1.90
2019-04-28T21:03:11.696Z,2.83
2019-04-28T21:05:41.553Z,2.00
2019-04-28T21:08:11.424Z,2.13
2019-04-28T21:10:41.281Z,1.97
2019-04-28T21:13:11.128Z,2.27
2019-04-28T21:15:40.965Z,2.30
2019-04-28T21:18:10.876Z,1.90
2019-04-28T21:20:40.734Z,1.70
2019-04-28T21:23:10.606Z,1.93
2019-04-28T21:25:40.461Z,2.00
2019-04-28T21:28:10.364Z,2.77
2019-04-28T21:30:40.197Z,3.17
2019-04-28T21:33:10.036Z,2.97
2019-04-28T21:35:39.872Z,3.10
2019-04-28T21:38:09.812Z,3.80
2019-04-28T21:40:40.852Z,4.17
2019-04-28T21:43:22.167Z,3.83
2019-04-28T21:46:26.258Z,4.20
2019-04-28T21:49:05.027Z,4.23
2019-04-28T21:51:34.859Z,4.30
2019-04-28T21:54:04.719Z,3.80
2019-04-28T21:56:34.589Z,3.73
2019-04-28T21:59:04.548Z,3.90
2019-04-28T22:01:34.650Z,3.73
2019-04-28T22:04:04.991Z,3.87
2019-04-28T22:06:34.877Z,3.10
2019-04-28T22:09:05.960Z,3.30
2019-04-28T22:11:35.820Z,3.20
2019-04-28T22:14:05.820Z,3.20
2019-04-28T22:16:35.878Z,3.33
2019-04-28T22:19:06.084Z,3.20
2019-04-28T22:21:54.945Z,3.00
2019-04-28T22:24:39.300Z,2.97
2019-04-28T22:27:12.220Z,2.63
2019-04-28T22:29:42.496Z,2.87
2019-04-28T22:32:12.834Z,3.00
2019-04-28T22:34:42.939Z,2.80
2019-04-28T22:37:13.207Z,3.53
2019-04-28T22:39:43.057Z,3.40
2019-04-28T22:42:12.888Z,3.20
2019-04-28T22:44:42.868Z,3.57
2019-04-28T22:47:12.825Z,2.87
2019-04-28T22:49:42.678Z,2.77
2019-04-28T22:52:12.520Z,2.80
2019-04-28T22:55:07.373Z,2.87
2019-04-28T22:58:08.397Z,2.40
2019-04-28T23:00:56.816Z,2.43
2019-04-28T23:03:34.173Z,2.50
2019-04-28T23:06:04.164Z,2.40
2019-04-28T23:08:34.268Z,2.30
2019-04-28T23:11:04.380Z,2.00
2019-04-28T23:13:34.283Z,2.23
2019-04-28T23:16:05.165Z,1.93
2019-04-28T23:18:35.176Z,2.23
2019-04-28T23:21:11.308Z,1.90
2019-04-28T23:23:41.171Z,2.83
2019-04-28T23:26:11.018Z,3.07
2019-04-28T23:28:40.899Z,2.70
2019-04-28T23:31:10.741Z,2.70
2019-04-28T23:33:40.581Z,2.60
2019-04-28T23:36:10.437Z,3.13
2019-04-28T23:38:42.491Z,2.50
2019-04-28T23:41:28.340Z,2.70
2019-04-28T23:43:58.204Z,3.20
2019-04-28T23:46:46.961Z,2.57
2019-04-28T23:49:16.805Z,2.33
2019-04-28T23:51:54.233Z,2.70
2019-04-28T23:54:44.792Z,1.93
2019-04-28T23:57:14.809Z,2.47
2019-04-28T23:59:44.592Z,1.80
